Time;durP1;ratioP1;P1;durP2;ratioP2;P2;SDS_P1;SDS_P2;PMS_P1;PMS_P2;Temp;Humidity;BMP_temperature;BMP_pressure;BME280_temperature;BME280_humidity;BME280_pressure;Samples;Min_cycle;Max_cycle;Signal;HPM_P1;HPM_P2
2021/04/13 00:02:37;;;;;;;0.68;0.63;;;;;;;3.95;46.49;101962.63;4855246;29;20033;-75
2021/04/13 00:05:13;;;;;;;0.35;0.30;;;;;;;3.89;47.33;101957.97;4844595;29;20030;-75
2021/04/13 00:07:50;;;;;;;0.35;0.30;;;;;;;3.76;46.72;101946.94;4837541;29;20097;-75
2021/04/13 00:10:22;;;;;;;0.95;0.50;;;;;;;3.66;47.11;101939.94;4855839;29;20499;-75
2021/04/13 00:12:48;;;;;;;0.40;0.22;;;;;;;3.74;47.30;101949.81;4855196;29;20045;-75
2021/04/13 00:15:24;;;;;;;0.85;0.85;;;;;;;3.72;47.30;101951.03;4856003;29;20037;-73
2021/04/13 00:17:50;;;;;;;0.68;0.40;;;;;;;3.64;47.58;101944.66;4845684;29;20029;-74
2021/04/13 00:20:27;;;;;;;0.95;0.38;;;;;;;3.70;47.83;101962.03;4827946;29;20037;-76
2021/04/13 00:22:53;;;;;;;0.40;0.32;;;;;;;3.70;48.07;101955.78;4856022;29;20093;-74
2021/04/13 00:25:44;;;;;;;0.45;0.45;;;;;;;3.65;47.96;101946.34;4854387;29;20471;-76
2021/04/13 00:28:10;;;;;;;0.40;0.40;;;;;;;3.54;47.58;101938.66;4855253;29;20491;-75
2021/04/13 00:30:48;;;;;;;0.57;0.57;;;;;;;3.61;48.31;101950.44;4858240;29;20061;-75
2021/04/13 00:33:19;;;;;;;1.50;1.40;;;;;;;3.54;48.91;101951.38;4856277;29;20077;-76
2021/04/13 00:35:47;;;;;;;1.70;1.60;;;;;;;3.45;49.42;101947.88;4853610;29;20041;-75
2021/04/13 00:38:20;;;;;;;1.23;1.13;;;;;;;3.30;49.79;101937.84;4851795;29;20033;-77
2021/04/13 00:40:49;;;;;;;2.83;1.30;;;;;;;3.34;50.93;101953.72;4832970;29;20022;-75
2021/04/13 00:43:18;;;;;;;0.95;0.95;;;;;;;3.24;50.41;101949.41;4856352;29;20032;-76
2021/04/13 00:45:47;;;;;;;1.00;0.93;;;;;;;3.22;50.71;101942.47;4860127;29;20030;-76
2021/04/13 00:48:21;;;;;;;1.15;1.05;;;;;;;3.21;50.15;101949.72;4860433;29;20030;-75
2021/04/13 00:50:50;;;;;;;1.33;0.90;;;;;;;3.20;49.49;101949.91;4865037;29;20041;-75
2021/04/13 00:53:20;;;;;;;0.80;0.80;;;;;;;3.17;50.16;101950.28;4848376;29;20054;-75
2021/04/13 00:55:52;;;;;;;0.22;0.22;;;;;;;3.05;49.44;101937.19;4854397;29;20569;-74
2021/04/13 00:58:36;;;;;;;0.88;0.88;;;;;;;3.11;50.68;101957.22;4856316;29;20481;-75
2021/04/13 01:01:19;;;;;;;0.70;0.57;;;;;;;3.07;50.80;101953.22;4853903;29;20028;-75
2021/04/13 01:03:52;;;;;;;0.43;0.40;;;;;;;2.95;50.79;101945.53;4848678;29;20052;-75
2021/04/13 01:06:24;;;;;;;0.63;0.63;;;;;;;3.00;50.58;101947.69;4865989;29;20078;-75
2021/04/13 01:09:06;;;;;;;0.50;0.50;;;;;;;3.00;51.24;101947.69;4845886;29;20028;-73
2021/04/13 01:11:43;;;;;;;0.40;0.40;;;;;;;2.95;51.24;101934.72;4849736;29;20485;-74
2021/04/13 01:14:10;;;;;;;0.50;0.50;;;;;;;2.95;51.27;101940.13;4852962;29;20042;-73
2021/04/13 01:16:42;;;;;;;1.05;1.02;;;;;;;2.96;51.40;101935.53;4872591;29;20037;-75
2021/04/13 01:19:46;;;;;;;0.93;0.93;;;;;;;2.95;51.07;101934.72;4862869;29;20036;-75
2021/04/13 01:22:35;;;;;;;0.70;0.70;;;;;;;2.96;50.77;101940.94;4847388;29;20141;-75
2021/04/13 01:25:28;;;;;;;0.70;0.70;;;;;;;2.97;50.86;101940.75;4853033;29;20045;-74
2021/04/13 01:28:14;;;;;;;;;;;;;;;;;;;;;
2021/04/13 01:30:45;;;;;;;;;;;;;;;2.94;51.33;101943.81;4872008;29;20159;-75
2021/04/13 01:33:11;;;;;;;0.70;0.70;;;;;;;2.89;51.39;101932.72;4865113;29;19953;-74
2021/04/13 01:35:39;;;;;;;0.32;0.32;;;;;;;2.79;51.66;101924.00;4867033;29;20143;-75
2021/04/13 01:38:08;;;;;;;0.80;0.40;;;;;;;2.83;52.14;101928.00;4833573;29;20040;-75
2021/04/13 01:43:21;;;;;;;0.77;0.60;;;;;;;2.78;52.64;101928.56;4866349;29;20014;-75
2021/04/13 01:45:49;;;;;;;0.80;0.80;;;;;;;2.79;52.81;101940.22;4864222;29;20042;-72
2021/04/13 01:48:17;;;;;;;3.58;1.50;;;;;;;2.78;52.25;101943.94;4845258;29;20121;-73
2021/04/13 01:50:46;;;;;;;1.45;1.17;;;;;;;2.75;52.91;101950.53;4857804;29;20033;-74
2021/04/13 01:53:14;;;;;;;2.38;1.50;;;;;;;2.63;52.04;101946.53;4855256;29;20022;-75
2021/04/13 01:56:02;;;;;;;0.57;0.57;;;;;;;2.65;51.77;101949.91;4844717;29;20061;-76
2021/04/13 01:58:39;;;;;;;0.30;0.30;;;;;;;2.62;52.85;101947.56;4845737;29;20419;-76
2021/04/13 02:01:11;;;;;;;0.30;0.30;;;;;;;2.60;51.78;101952.31;4859876;29;20033;-76
2021/04/13 02:03:42;;;;;;;0.30;0.30;;;;;;;2.49;51.74;101934.59;4855182;29;20078;-76
2021/04/13 02:06:20;;;;;;;0.32;0.32;;;;;;;2.47;52.01;101939.34;4841632;29;20503;-74
2021/04/13 02:08:52;;;;;;;0.50;0.20;;;;;;;2.42;51.84;101949.81;4854592;29;20488;-77
2021/04/13 02:11:26;;;;;;;0.10;0.10;;;;;;;2.38;52.29;101948.47;4857543;29;20383;-77
2021/04/13 02:14:13;;;;;;;0.25;0.13;;;;;;;2.35;52.10;101946.13;4857684;29;20082;-76
2021/04/13 02:16:50;;;;;;;0.20;0.20;;;;;;;2.34;52.77;101947.16;4855466;29;20061;-78
2021/04/13 02:19:17;;;;;;;0.20;0.20;;;;;;;2.29;52.43;101939.56;4849536;29;20026;-76
2021/04/13 02:21:48;;;;;;;0.15;0.13;;;;;;;2.32;52.68;101949.19;4825708;29;20464;-78
2021/04/13 02:24:20;;;;;;;0.17;0.10;;;;;;;2.22;52.31;101942.13;4843269;29;20032;-75
2021/04/13 02:27:09;;;;;;;0.10;0.10;;;;;;;2.22;52.86;101943.97;4857137;29;20045;-76
2021/04/13 02:29:50;;;;;;;0.25;0.25;;;;;;;2.15;52.75;101943.84;4859683;29;20058;-76
2021/04/13 02:32:22;;;;;;;4.45;0.30;;;;;;;2.18;52.42;101948.06;4842842;29;20037;-77
2021/04/13 02:34:51;;;;;;;0.20;0.20;;;;;;;2.19;52.55;101950.59;4865754;29;20046;-77
2021/04/13 02:37:26;;;;;;;0.20;0.20;;;;;;;2.21;53.11;101948.53;4852112;29;20465;-76
2021/04/13 02:39:55;;;;;;;0.10;0.10;;;;;;;2.12;53.56;101941.50;4848013;29;20029;-76
2021/04/13 02:42:24;;;;;;;0.15;0.15;;;;;;;2.14;53.03;101952.94;4864267;29;20073;-78
2021/04/13 02:45:02;;;;;;;0.52;0.52;;;;;;;2.05;53.28;101949.44;4863834;29;20068;-77
2021/04/13 02:47:30;;;;;;;0.20;0.20;;;;;;;2.09;53.58;101958.03;4862695;29;20058;-75
2021/04/13 02:50:18;;;;;;;0.30;0.30;;;;;;;2.05;54.00;101954.00;4863735;29;20053;-76
2021/04/13 02:52:49;;;;;;;0.10;0.10;;;;;;;2.00;53.50;101942.84;4848405;29;20036;-75
2021/04/13 02:55:32;;;;;;;0.40;0.32;;;;;;;2.06;53.33;101951.13;4847314;29;20085;-75
2021/04/13 02:58:03;;;;;;;0.13;0.13;;;;;;;2.00;53.98;101946.41;4854138;29;20033;-75
2021/04/13 03:00:36;;;;;;;0.10;0.10;;;;;;;1.98;53.56;101948.44;4845929;29;20112;-76
2021/04/13 03:03:10;;;;;;;0.93;0.70;;;;;;;1.98;54.18;101950.28;4856725;29;20044;-75
2021/04/13 03:05:37;;;;;;;2.38;0.50;;;;;;;2.01;54.19;101956.19;4854438;29;20026;-76
2021/04/13 03:08:15;;;;;;;0.20;0.20;;;;;;;2.01;54.00;101949.94;4859396;29;21134;-76
2021/04/13 03:10:51;;;;;;;0.88;0.28;;;;;;;1.99;53.69;101955.50;4859045;29;20036;-75
2021/04/13 03:13:21;;;;;;;0.20;0.20;;;;;;;1.96;53.83;101953.16;4843935;29;20057;-75
2021/04/13 03:15:53;;;;;;;0.30;0.20;;;;;;;1.96;54.14;101955.00;4861544;29;20370;-76
2021/04/13 03:18:23;;;;;;;1.65;0.30;;;;;;;1.92;54.36;101955.34;4861040;29;20025;-75
2021/04/13 03:20:59;;;;;;;0.30;0.30;;;;;;;1.85;54.31;101943.56;4846353;29;20040;-76
2021/04/13 03:23:29;;;;;;;0.17;0.17;;;;;;;1.85;54.34;101948.94;4853975;29;20464;-76
2021/04/13 03:25:59;;;;;;;0.57;0.30;;;;;;;1.84;54.99;101952.69;4846077;29;20068;-75
2021/04/13 03:28:30;;;;;;;0.40;0.40;;;;;;;1.81;54.21;101947.63;4857461;29;20461;-77
2021/04/13 03:30:56;;;;;;;0.10;0.10;;;;;;;1.86;54.80;101960.59;4856094;29;20113;-76
2021/04/13 03:33:25;;;;;;;0.43;0.40;;;;;;;1.80;54.49;101953.19;4853507;29;20061;-76
2021/04/13 03:35:56;;;;;;;0.43;0.43;;;;;;;1.72;54.85;101948.63;4859281;29;20388;-76
2021/04/13 03:38:27;;;;;;;1.02;0.82;;;;;;;1.70;54.99;101950.66;4855100;29;20033;-76
2021/04/13 03:40:53;;;;;;;0.20;0.20;;;;;;;1.68;55.47;101947.28;4844995;29;20033;-77
2021/04/13 03:43:25;;;;;;;0.57;0.57;;;;;;;1.63;54.82;101949.66;4857508;29;20488;-76
2021/04/13 03:45:55;;;;;;;1.60;0.50;;;;;;;1.64;54.89;101945.97;4846946;29;20429;-76
2021/04/13 03:48:25;;;;;;;0.35;0.30;;;;;;;1.62;55.70;101947.97;4859556;29;20029;-75
2021/04/13 03:51:03;;;;;;;0.52;0.50;;;;;;;1.61;55.72;101946.28;4854198;29;20033;-77
2021/04/13 03:53:41;;;;;;;1.02;0.70;;;;;;;1.56;55.45;101944.94;4846045;29;20173;-77
2021/04/13 03:56:10;;;;;;;1.85;0.47;;;;;;;1.50;55.76;101937.50;4846065;29;20049;-77
2021/04/13 03:58:46;;;;;;;0.25;0.25;;;;;;;1.55;55.27;101940.56;4861643;29;20385;-78
2021/04/13 04:01:29;;;;;;;;;;;;;;;;;;;;;
2021/04/13 04:04:13;;;;;;;2.40;0.32;;;;;;;1.38;55.54;101920.00;4863115;29;20116;-78
2021/04/13 04:06:41;;;;;;;0.28;0.28;;;;;;;1.49;55.12;101948.47;4855470;29;20038;-78
2021/04/13 04:09:33;;;;;;;;;;;;;;;;;;;;;
2021/04/13 04:12:38;;;;;;;;;;;;;;;;;;;;;
2021/04/13 04:15:11;;;;;;;0.43;0.40;;;;;;;1.31;55.93;101929.78;4864901;29;20114;-79
2021/04/13 04:18:27;;;;;;;;;;;;;;;;;;;;;
2021/04/13 04:20:58;;;;;;;0.40;0.40;;;;;;;1.21;55.95;101914.63;4865954;29;20113;-77
2021/04/13 04:24:02;;;;;;;0.10;0.10;;;;;;;1.33;56.66;101938.53;4851333;29;20033;-78
2021/04/13 04:26:24;;;;;;;0.40;0.40;;;;;;;1.36;56.18;101938.22;4862278;29;20052;-77
2021/04/13 04:28:59;;;;;;;;;;;;;;;;;;;;;
2021/04/13 04:31:35;;;;;;;0.40;0.40;;;;;;;1.34;56.03;101945.59;4867262;29;20109;-79
2021/04/13 04:34:21;;;;;;;0.20;0.20;;;;;;;1.33;56.56;101943.91;4846835;29;20034;-79
2021/04/13 04:36:50;;;;;;;0.40;0.40;;;;;;;1.29;56.04;101939.88;4821936;29;20049;-75
2021/04/13 04:39:38;;;;;;;1.05;0.40;;;;;;;1.30;56.97;101946.94;4861541;29;20025;-78
2021/04/13 04:42:12;;;;;;;0.35;0.35;;;;;;;1.24;56.43;101934.16;4851224;29;20033;-77
2021/04/13 04:44:39;;;;;;;0.85;0.55;;;;;;;1.27;56.61;101939.19;4850996;29;20044;-78
2021/04/13 04:47:33;;;;;;;0.13;0.13;;;;;;;1.29;56.34;101947.97;4854572;29;20029;-78
2021/04/13 04:49:59;;;;;;;0.20;0.15;;;;;;;1.22;56.04;101945.94;4865669;29;20024;-77
2021/04/13 04:52:27;;;;;;;0.20;0.20;;;;;;;1.17;57.04;101934.81;4859846;29;20057;-76
2021/04/13 04:54:52;;;;;;;0.30;0.28;;;;;;;1.15;57.44;101941.38;4863493;29;20115;-78
2021/04/13 04:57:18;;;;;;;0.60;0.60;;;;;;;1.10;57.04;101931.09;4831397;29;20042;-78
2021/04/13 04:59:43;;;;;;;0.20;0.20;;;;;;;1.13;57.21;101938.84;4839028;29;20026;-77
2021/04/13 05:02:09;;;;;;;0.47;0.30;;;;;;;1.15;57.43;101941.38;4837348;29;20053;-76
2021/04/13 05:04:34;;;;;;;0.20;0.20;;;;;;;1.15;57.01;101947.59;4837662;29;20393;-78
2021/04/13 05:07:00;;;;;;;3.45;0.30;;;;;;;1.09;57.62;101937.50;4850238;29;20484;-77
2021/04/13 05:09:25;;;;;;;1.40;0.40;;;;;;;1.10;57.84;101944.56;4835269;29;20067;-77
2021/04/13 05:11:51;;;;;;;0.30;0.30;;;;;;;1.07;57.88;101939.53;4823422;29;20045;-78
2021/04/13 05:14:16;;;;;;;0.32;0.32;;;;;;;1.09;57.87;101948.28;4827623;29;20035;-78
2021/04/13 05:16:42;;;;;;;0.43;0.43;;;;;;;1.08;57.72;101951.13;4849238;29;20417;-77
2021/04/13 05:19:07;;;;;;;0.20;0.20;;;;;;;1.08;57.47;101954.69;4828473;29;20106;-77
2021/04/13 05:21:33;;;;;;;0.40;0.30;;;;;;;1.07;58.07;101958.38;4840868;29;20031;-78
2021/04/13 05:23:59;;;;;;;0.75;0.32;;;;;;;1.10;57.69;101966.13;4831326;29;20030;-76
2021/04/13 05:26:24;;;;;;;0.90;0.20;;;;;;;1.09;58.26;101953.66;4831803;29;20120;-76
2021/04/13 05:28:50;;;;;;;0.10;0.10;;;;;;;1.12;58.20;101958.72;4832013;29;20044;-78
2021/04/13 05:31:15;;;;;;;0.60;0.60;;;;;;;1.09;57.90;101958.22;4845991;29;20042;-77
2021/04/13 05:33:41;;;;;;;0.13;0.13;;;;;;;1.16;58.00;101957.38;4846407;29;20154;-78
2021/04/13 05:36:07;;;;;;;0.30;0.30;;;;;;;1.18;58.35;101970.69;4834110;29;20110;-77
2021/04/13 05:38:40;;;;;;;0.60;0.60;;;;;;;1.25;57.98;101973.56;4835562;29;20082;-77
2021/04/13 05:41:13;;;;;;;0.47;0.35;;;;;;;1.30;57.68;101979.28;4846268;29;20038;-79
2021/04/13 05:43:39;;;;;;;0.22;0.10;;;;;;;1.30;57.75;101971.19;4834331;29;20430;-78
2021/04/13 05:46:06;;;;;;;0.20;0.20;;;;;;;1.27;58.14;101961.63;4828613;29;20042;-76
2021/04/13 05:48:31;;;;;;;0.38;0.30;;;;;;;1.37;58.46;101974.91;4848614;29;20465;-76
2021/04/13 05:50:57;;;;;;;0.25;0.25;;;;;;;1.40;58.35;101974.59;4808349;29;20037;-77
2021/04/13 05:53:23;;;;;;;0.50;0.50;;;;;;;1.41;57.87;101967.34;4836463;29;20398;-76
2021/04/13 05:55:50;;;;;;;0.75;0.47;;;;;;;1.47;58.64;101972.91;4834881;29;20058;-78
2021/04/13 05:58:21;;;;;;;0.50;0.40;;;;;;;1.53;58.31;101972.25;4830734;29;20030;-79
2021/04/13 06:00:52;;;;;;;0.52;0.40;;;;;;;1.62;58.09;101978.50;4847778;29;20510;-77
2021/04/13 06:03:29;;;;;;;;;;;;;;;;;;;;;
2021/04/13 06:06:03;;;;;;;0.30;0.30;;;;;;;1.73;58.31;101985.38;4838919;29;20125;-76
2021/04/13 06:08:29;;;;;;;0.38;0.38;;;;;;;1.73;58.42;101971.91;4851156;29;20116;-77
2021/04/13 06:11:06;;;;;;;;;;;;;;;;;;;;;
2021/04/13 06:13:51;;;;;;;;;;;;;;;;;;;;;
2021/04/13 06:16:19;;;;;;;1.70;1.33;;;;;;;1.79;58.98;101965.81;4815940;29;20170;-76
2021/04/13 06:18:52;;;;;;;2.08;1.45;;;;;;;1.89;59.38;101976.44;4835984;29;20049;-77
2021/04/13 06:21:23;;;;;;;1.65;1.50;;;;;;;1.89;59.71;101981.84;4820670;29;20039;-72
2021/04/13 06:23:48;;;;;;;1.70;1.52;;;;;;;2.11;60.06;102001.88;4830814;29;20033;-74
2021/04/13 06:26:13;;;;;;;1.00;1.00;;;;;;;2.14;59.15;101995.31;4818302;29;20039;-74
2021/04/13 06:28:42;;;;;;;0.95;0.95;;;;;;;2.26;58.57;101999.31;4810516;29;20038;-77
2021/04/13 06:31:07;;;;;;;0.52;0.40;;;;;;;2.32;58.60;102000.47;4824962;29;20046;-77
2021/04/13 06:33:32;;;;;;;2.15;1.42;;;;;;;2.50;59.36;102011.06;4814227;29;20030;-78
2021/04/13 06:36:00;;;;;;;5.38;1.50;;;;;;;2.51;58.29;102002.81;4802830;29;20054;-81
2021/04/13 06:38:28;;;;;;;0.85;0.85;;;;;;;2.73;58.71;102019.25;4836677;29;20474;-80
2021/04/13 06:40:58;;;;;;;1.38;1.27;;;;;;;2.85;59.59;102014.28;4796512;29;20067;-79
2021/04/13 06:43:52;;;;;;;0.80;0.80;;;;;;;3.03;57.98;102014.91;4813862;29;20393;-79
2021/04/13 06:46:35;;;;;;;0.82;0.82;;;;;;;3.14;59.03;102021.78;4818986;29;20038;-79
2021/04/13 06:49:31;;;;;;;0.80;0.80;;;;;;;3.28;58.94;102020.16;4820595;29;20026;-78
2021/04/13 06:52:58;;;;;;;;;;;;;;;;;;;;;
2021/04/13 06:55:32;;;;;;;1.00;1.00;;;;;;;3.55;58.85;102021.50;4833980;29;20034;-78
2021/04/13 06:58:38;;;;;;;1.00;1.00;;;;;;;3.58;58.15;102014.91;4839083;29;20038;-79
2021/04/13 07:01:19;;;;;;;0.77;0.77;;;;;;;3.64;57.65;101998.78;4837812;29;20021;-79
2021/04/13 07:07:26;;;;;;;1.05;0.85;;;;;;;3.93;57.67;102021.53;4833220;29;20034;-80
2021/04/13 07:10:06;;;;;;;0.35;0.35;;;;;;;4.08;57.58;102026.16;4836699;29;20041;-78
2021/04/13 07:13:11;;;;;;;;;;;;;;;;;;;;;
2021/04/13 07:16:15;;;;;;;;;;;;;;;;;;;;;
2021/04/13 07:18:49;;;;;;;0.73;0.73;;;;;;;4.61;57.21;102026.94;4843344;29;20110;-81
2021/04/13 07:21:48;;;;;;;0.95;0.80;;;;;;;4.86;57.49;102035.63;4838649;29;20034;-82
2021/04/13 07:25:01;;;;;;;2.80;1.00;;;;;;;5.03;56.74;102035.41;4851259;29;20041;-83
2021/04/13 07:28:05;;;;;;;5.05;0.90;;;;;;;5.23;57.15;102046.50;4832701;29;20038;-81
2021/04/13 07:30:47;;;;;;;;;;;;;;;;;;;;;
2021/04/13 07:39:07;;;;;;;1.60;1.45;;;;;;;5.72;57.10;102040.34;4758522;30;20133;-81
2021/04/13 07:42:16;;;;;;;1.58;1.48;;;;;;;5.90;57.01;102045.31;4795010;29;20035;-81
2021/04/13 07:45:12;;;;;;;;;;;;;;;;;;;;;
2021/04/13 07:48:14;;;;;;;2.75;1.75;;;;;;;6.28;56.86;102049.63;4791786;30;20111;-80
2021/04/13 07:54:35;;;;;;;2.35;1.02;;;;;;;6.58;56.03;102038.53;4818960;29;20034;-80
2021/04/13 07:57:08;;;;;;;1.27;1.27;;;;;;;6.66;56.37;102030.22;4834524;29;20524;-79
2021/04/13 07:59:56;;;;;;;;;;;;;;;;;;;;;
2021/04/13 08:02:34;;;;;;;1.48;1.48;;;;;;;6.88;56.07;102036.41;4845454;29;20097;-80
2021/04/13 08:05:43;;;;;;;;;;;;;;;;;;;;;
2021/04/13 08:09:13;;;;;;;2.58;1.00;;;;;;;7.34;55.71;102037.63;4821446;29;20076;-80
2021/04/13 08:11:40;;;;;;;0.68;0.68;;;;;;;7.51;54.75;102028.03;4840902;29;20042;-80
2021/04/13 08:14:52;;;;;;;1.40;1.30;;;;;;;7.93;55.26;102044.22;4859785;29;20063;-80
2021/04/13 08:17:50;;;;;;;1.05;1.05;;;;;;;8.03;54.88;102036.47;4835034;29;20486;-79
2021/04/13 08:20:57;;;;;;;;;;;;;;;;;;;;;
2021/04/13 08:23:35;;;;;;;;;;;;;;;;;;;;;
2021/04/13 08:26:39;;;;;;;;;;;;;;;;;;;;;
2021/04/13 08:29:49;;;;;;;;;;;;;;;;;;;;;
2021/04/13 08:33:00;;;;;;;1.83;1.50;;;;;;;10.34;53.73;102050.56;4844536;29;20113;-80
2021/04/13 08:36:13;;;;;;;;;;;;;;;;;;;;;
2021/04/13 08:39:03;;;;;;;1.55;1.52;;;;;;;12.26;52.18;102061.97;4853043;29;20081;-80
2021/04/13 08:41:54;;;;;;;1.52;1.38;;;;;;;12.99;51.57;102034.22;4851496;29;20063;-82
2021/04/13 08:44:50;;;;;;;;;;;;;;;;;;;;;
2021/04/13 08:48:24;;;;;;;;;;;;;;;;;;;;;
2021/04/13 08:51:33;;;;;;;1.27;1.17;;;;;;;16.28;48.13;102073.91;4817205;29;20030;-80
2021/04/13 08:54:37;;;;;;;0.98;0.98;;;;;;;17.26;46.70;102078.09;4786813;29;20074;-81
2021/04/13 08:57:44;;;;;;;1.30;1.27;;;;;;;18.21;44.74;102065.81;4800052;29;20133;-80
2021/04/13 09:00:56;;;;;;;0.52;0.50;;;;;;;19.22;44.71;102067.78;4817082;29;20031;-79
2021/04/13 09:07:46;;;;;;;0.60;0.50;;;;;;;20.89;39.96;102072.56;4784599;29;20031;-80
2021/04/13 09:10:54;;;;;;;0.38;0.32;;;;;;;21.88;38.06;102084.03;4824161;29;20062;-79
2021/04/13 09:14:04;;;;;;;0.65;0.65;;;;;;;22.47;36.04;102087.22;4817678;29;20083;-80
2021/04/13 09:17:34;;;;;;;;;;;;;;;;;;;;;
2021/04/13 09:20:13;;;;;;;0.28;0.28;;;;;;;22.76;35.17;102059.06;4747896;30;20135;-80
2021/04/13 09:23:16;;;;;;;;;;;;;;;;;;;;;
2021/04/13 09:26:31;;;;;;;;;;;;;;;;;;;;;
2021/04/13 09:29:58;;;;;;;;;;;;;;;;;;;;;
2021/04/13 09:33:03;;;;;;;0.20;0.17;;;;;;;25.79;32.72;102083.16;4824098;29;20125;-81
2021/04/13 09:35:42;;;;;;;0.47;0.40;;;;;;;26.70;30.72;102094.38;4833468;29;20049;-80
2021/04/13 09:38:38;;;;;;;;;;;;;;;;;;;;;
2021/04/13 09:41:25;;;;;;;1.05;0.52;;;;;;;27.37;27.27;102096.69;4830977;29;20094;-79
2021/04/13 09:47:49;;;;;;;0.35;0.15;;;;;;;28.51;27.05;102099.31;4819099;29;20159;-81
2021/04/13 09:50:58;;;;;;;0.43;0.17;;;;;;;29.05;25.67;102101.94;4830799;29;20052;-80
2021/04/13 09:53:47;;;;;;;0.35;0.30;;;;;;;28.70;24.25;102085.50;4834475;29;20239;-77
2021/04/13 09:56:57;;;;;;;0.55;0.47;;;;;;;28.37;22.55;102100.44;4827946;29;20050;-77
2021/04/13 10:00:17;;;;;;;;;;;;;;;;;;;;;
2021/04/13 10:02:45;;;;;;;1.77;0.85;;;;;;;28.61;21.08;102093.25;4749442;30;20056;-78
2021/04/13 10:05:26;;;;;;;0.50;0.30;;;;;;;27.76;21.98;102081.34;4748171;30;20040;-77
2021/04/13 10:07:59;;;;;;;0.50;0.30;;;;;;;26.86;21.63;102091.81;4809523;29;20038;-76
2021/04/13 10:10:38;;;;;;;0.20;0.20;;;;;;;25.82;22.96;102085.28;4817819;29;20022;-80
2021/04/13 10:13:33;;;;;;;0.30;0.30;;;;;;;24.81;23.08;102063.69;4821503;29;20138;-76
2021/04/13 10:16:28;;;;;;;0.10;0.10;;;;;;;23.80;23.81;102075.25;4800365;29;20091;-77
2021/04/13 10:19:32;;;;;;;0.52;0.25;;;;;;;22.67;24.52;102078.47;4819273;29;20042;-77
2021/04/13 10:22:26;;;;;;;0.10;0.10;;;;;;;21.63;25.47;102065.78;4838368;29;20466;-77
2021/04/13 10:25:17;;;;;;;1.52;0.70;;;;;;;20.70;26.15;102064.97;4839784;29;20066;-79
2021/04/13 10:31:27;;;;;;;1.13;0.93;;;;;;;17.82;30.32;102069.06;4820673;29;20057;-78
2021/04/13 10:34:16;;;;;;;1.40;0.55;;;;;;;16.98;31.46;102071.91;4815730;29;20058;-78
2021/04/13 10:37:16;;;;;;;0.82;0.70;;;;;;;17.15;32.44;102066.16;4812845;29;20552;-77
2021/04/13 10:40:14;;;;;;;0.88;0.88;;;;;;;17.09;31.44;102062.53;4825626;29;20046;-78
2021/04/13 10:43:04;;;;;;;0.52;0.50;;;;;;;16.59;32.24;102063.91;4847097;29;20039;-77
2021/04/13 10:45:39;;;;;;;0.82;0.70;;;;;;;16.20;32.79;102051.22;4820365;29;20046;-79
2021/04/13 10:48:09;;;;;;;;;;;;;;;17.11;33.46;102059.50;4836671;29;20087;-76
2021/04/13 10:50:57;;;;;;;;;;;;;;;;;;;;;
2021/04/13 10:54:03;;;;;;;0.90;0.63;;;;;;;20.51;31.49;102052.94;4827955;29;20026;-80
2021/04/13 10:57:06;;;;;;;0.73;0.40;;;;;;;22.54;27.43;102050.59;4842485;29;20046;-77
2021/04/13 11:03:25;;;;;;;0.40;0.20;;;;;;;26.09;25.15;102050.50;4819997;29;20045;-80
2021/04/13 11:09:45;;;;;;;1.60;0.40;;;;;;;27.50;20.58;102050.66;4843450;29;20042;-78
2021/04/13 11:12:54;;;;;;;0.40;0.40;;;;;;;28.58;20.37;102048.91;4828669;29;20098;-79
2021/04/13 11:16:00;;;;;;;;;;;;;;;;;;;;;
2021/04/13 11:18:59;;;;;;;0.70;0.50;;;;;;;30.30;17.01;102049.66;4843066;29;20068;-80
2021/04/13 11:22:12;;;;;;;0.75;0.50;;;;;;;28.37;17.08;102038.56;4856063;29;20053;-78
2021/04/13 11:25:26;;;;;;;;;;;;;;;;;;;;;
2021/04/13 11:28:54;;;;;;;0.45;0.45;;;;;;;23.96;19.87;102035.78;4856722;29;20080;-76
2021/04/13 11:31:48;;;;;;;0.75;0.52;;;;;;;24.77;20.95;102031.94;4840588;29;20244;-81
2021/04/13 11:34:42;;;;;;;;;;;;;;;;;;;;;
2021/04/13 11:38:19;;;;;;;0.45;0.40;;;;;;;25.26;20.88;102027.09;4836116;29;20317;-80
2021/04/13 11:41:14;;;;;;;0.50;0.30;;;;;;;27.49;20.83;102034.97;4764000;30;20047;-80
2021/04/13 11:47:14;;;;;;;0.40;0.25;;;;;;;30.51;18.17;102040.13;4775900;30;20043;-80
2021/04/13 11:50:23;;;;;;;;;;;;;;;;;;;;;
2021/04/13 11:56:28;;;;;;;1.02;0.25;;;;;;;33.43;16.07;102038.06;4820638;29;20037;-75
2021/04/13 11:59:33;;;;;;;0.85;0.32;;;;;;;33.33;14.00;102030.25;4839143;29;20106;-77
2021/04/13 12:02:46;;;;;;;0.45;0.30;;;;;;;33.19;13.46;102009.00;4845301;29;20042;-78
2021/04/13 12:05:45;;;;;;;0.35;0.20;;;;;;;33.48;12.98;102019.88;4842386;29;20038;-79
2021/04/13 12:08:28;;;;;;;0.52;0.47;;;;;;;32.22;13.44;102018.00;4846175;29;20029;-78
2021/04/13 12:11:03;;;;;;;0.20;0.20;;;;;;;30.78;13.71;102010.13;4862942;29;20026;-77
2021/04/13 12:13:52;;;;;;;2.10;0.50;;;;;;;29.17;14.01;102015.78;4827876;29;20596;-80
2021/04/13 12:16:48;;;;;;;1.00;0.20;;;;;;;27.76;15.67;102001.81;4870518;29;20022;-78
2021/04/13 12:19:35;;;;;;;3.00;0.20;;;;;;;26.80;16.06;102001.41;4848363;29;20044;-78
2021/04/13 12:22:44;;;;;;;;;;;;;;;;;;;;;
2021/04/13 12:25:40;;;;;;;0.40;0.40;;;;;;;25.32;17.05;102016.59;4850137;29;20117;-77
2021/04/13 12:28:30;;;;;;;0.13;0.13;;;;;;;24.64;17.75;102007.69;4832256;29;20113;-79
2021/04/13 12:31:13;;;;;;;1.15;0.30;;;;;;;24.53;18.32;102007.97;4848718;29;20026;-78
2021/04/13 12:33:56;;;;;;;0.80;0.60;;;;;;;24.23;18.58;101999.28;4860585;29;20041;-78
2021/04/13 12:36:51;;;;;;;;;;;;;;;;;;;;;
2021/04/13 12:39:57;;;;;;;0.45;0.45;;;;;;;24.15;19.25;101997.28;4847879;29;20081;-79
2021/04/13 12:42:57;;;;;;;0.25;0.25;;;;;;;24.06;19.55;101988.00;4838812;29;20048;-75
2021/04/13 12:45:32;;;;;;;0.70;0.60;;;;;;;23.88;19.82;101999.06;4800044;29;20102;-79
2021/04/13 12:48:17;;;;;;;0.30;0.20;;;;;;;23.57;19.61;101982.25;4836842;29;20037;-75
2021/04/13 12:51:23;;;;;;;0.20;0.20;;;;;;;23.56;19.63;101990.94;4871629;29;20044;-76
2021/04/13 12:54:27;;;;;;;0.70;0.60;;;;;;;22.91;20.27;101967.84;4826847;29;20073;-77
2021/04/13 12:57:28;;;;;;;4.25;0.55;;;;;;;22.41;21.16;101991.72;4860777;29;20074;-77
2021/04/13 13:00:36;;;;;;;2.00;0.43;;;;;;;21.81;21.18;101973.03;4837906;29;20049;-76
2021/04/13 13:03:38;;;;;;;0.77;0.50;;;;;;;21.48;20.73;101986.06;4841792;29;20055;-78
2021/04/13 13:06:24;;;;;;;3.05;0.20;;;;;;;21.06;20.90;101967.22;4833803;29;20045;-77
2021/04/13 13:09:05;;;;;;;0.20;0.20;;;;;;;20.97;21.74;101977.38;4844665;29;20121;-77
2021/04/13 13:11:41;;;;;;;0.43;0.43;;;;;;;20.66;22.16;101988.88;4845528;29;20682;-77
2021/04/13 13:14:27;;;;;;;0.30;0.30;;;;;;;20.12;22.29;101954.75;4844515;29;20038;-78
2021/04/13 13:16:53;;;;;;;;;;;;;;;20.03;23.17;101979.53;4827518;29;20037;-79
2021/04/13 13:19:52;;;;;;;1.25;1.00;;;;;;;19.62;24.61;101977.06;4836103;29;19920;-77
2021/04/13 13:22:42;;;;;;;;;;;;;;;;;;;;;
2021/04/13 13:25:31;;;;;;;2.47;1.50;;;;;;;18.13;27.99;101963.91;4848612;29;20120;-77
2021/04/13 13:28:36;;;;;;;;;;;;;;;;;;;;;
2021/04/13 13:31:02;;;;;;;4.18;3.72;;;;;;;17.15;32.16;101965.81;4843983;29;20118;-77
2021/04/13 13:33:40;;;;;;;5.15;3.53;;;;;;;16.46;34.67;101963.06;4834450;29;20049;-79
2021/04/13 13:36:17;;;;;;;3.15;2.95;;;;;;;15.90;36.68;101968.22;4848976;29;20036;-76
2021/04/13 13:38:48;;;;;;;4.47;4.07;;;;;;;15.11;38.13;101935.53;4840621;29;20116;-76
2021/04/13 13:41:26;;;;;;;3.35;3.05;;;;;;;14.61;38.70;101948.44;4850593;29;20052;-78
2021/04/13 13:44:10;;;;;;;3.92;3.20;;;;;;;14.27;39.96;101947.69;4851743;29;20033;-78
2021/04/13 13:46:41;;;;;;;4.13;3.80;;;;;;;14.08;41.02;101956.22;4822978;29;20124;-75
2021/04/13 13:49:31;;;;;;;3.17;2.97;;;;;;;13.93;41.95;101975.22;4855049;29;20041;-79
2021/04/13 13:52:30;;;;;;;3.42;3.22;;;;;;;13.46;43.24;101948.06;4862551;29;20038;-77
2021/04/13 13:55:35;;;;;;;4.88;3.55;;;;;;;13.39;43.71;101953.72;4829186;29;20069;-77
2021/04/13 13:58:29;;;;;;;3.22;3.03;;;;;;;13.23;43.93;101967.16;4822228;29;20464;-77
2021/04/13 14:01:02;;;;;;;6.60;3.22;;;;;;;13.18;45.21;101957.97;4836577;29;20031;-76
2021/04/13 14:03:59;;;;;;;;;;;;;;;;;;;;;
2021/04/13 14:06:59;;;;;;;3.58;3.28;;;;;;;13.03;45.39;101967.59;4839845;29;20026;-77
2021/04/13 14:09:33;;;;;;;3.78;3.55;;;;;;;12.83;46.30;101939.75;4828121;29;20034;-76
2021/04/13 14:13:00;;;;;;;;;;;;;;;;;;;;;
2021/04/13 14:15:34;;;;;;;10.32;4.55;;;;;;;12.61;47.78;101954.13;4843996;29;20678;-78
2021/04/13 14:18:33;;;;;;;3.80;3.50;;;;;;;12.38;47.77;101933.03;4846598;29;20513;-78
2021/04/13 14:21:04;;;;;;;3.67;3.45;;;;;;;12.32;48.70;101945.81;4844314;29;20059;-79
2021/04/13 14:23:50;;;;;;;;;;;;;;;;;;;;;
2021/04/13 14:26:25;;;;;;;3.25;3.10;;;;;;;12.44;47.75;101954.06;4838784;29;20122;-77